LFMK/CCF METAR and TAF weather

Enter ICAO airport designator
Station Type Date Time Source
LFMK METAR 2019/08/26 08:00 UTC NOAA

LFMK 260800Z AUTO 08007KT CAVOK 23/17 Q1017 NOSIG


Station Type Date Time Source
LFMK Decoded METAR 2019/08/26 08:00 UTC NOAA

Station name not available
Aug 26, 2019 - 04:00 AM EDT / 2019.08.26 0800 UTC
Wind: from the E (080 degrees) at 8 MPH (7 KT):0
Visibility: greater than 7 mile(s):0
Temperature: 73 F (23 C)
Dew Point: 62 F (17 C)
Relative Humidity: 68%
Pressure (altimeter): 30.03 in. Hg (1017 hPa)
ob: LFMK 260800Z AUTO 08007KT CAVOK 23/17 Q1017 NOSIG
cycle: 8

Station Type Date Time Source
LFMK TAF 2019/08/26 03:53 UTC NOAA

TAF LFMK 260200Z 2603/2703 10010KT CAVOK PROB30
TEMPO 2605/2608 4000 BR
BECMG 2610/2611 09015G25KT

Example: see airport list